createdAt,value
2022-09-14T00:01:14.278Z,5.03
2022-09-14T00:04:07.434Z,7.73
2022-09-14T00:06:54.549Z,7.33
2022-09-14T00:09:41.753Z,7.70
2022-09-14T00:12:28.724Z,4.90
2022-09-14T00:15:15.828Z,5.83
2022-09-14T00:18:02.903Z,6.67
2022-09-14T00:20:49.835Z,6.60
2022-09-14T00:23:38.869Z,6.37
2022-09-14T00:26:26.555Z,5.03
2022-09-14T00:29:13.625Z,3.93
2022-09-14T00:32:00.741Z,7.37
2022-09-14T00:34:47.764Z,5.37
2022-09-14T00:37:34.771Z,7.03
2022-09-14T00:40:21.901Z,8.03
2022-09-14T00:43:16.125Z,7.57
2022-09-14T00:46:03.297Z,4.70
2022-09-14T00:48:50.599Z,9.37
2022-09-14T00:51:41.679Z,5.43
2022-09-14T00:54:28.639Z,6.53
2022-09-14T00:57:17.296Z,7.23
2022-09-14T01:00:08.383Z,8.83
2022-09-14T01:02:55.861Z,7.67
2022-09-14T01:06:13.746Z,4.90
2022-09-14T01:09:32.170Z,6.13
2022-09-14T01:12:49.691Z,7.37
2022-09-14T01:15:53.094Z,7.60
2022-09-14T01:18:54.299Z,9.90
2022-09-14T01:21:44.338Z,7.20
2022-09-14T01:24:46.029Z,7.70
2022-09-14T01:27:33.107Z,7.23
2022-09-14T01:30:23.193Z,6.13
2022-09-14T01:33:26.443Z,8.90
2022-09-14T01:36:15.165Z,7.53
2022-09-14T01:39:02.830Z,8.70
2022-09-14T01:41:52.572Z,7.30
2022-09-14T01:44:45.902Z,6.37
2022-09-14T01:47:44.054Z,7.43
2022-09-14T01:50:44.038Z,6.93
2022-09-14T01:53:37.776Z,6.40
2022-09-14T01:56:57.046Z,6.47
2022-09-14T01:59:46.309Z,7.70
2022-09-14T02:02:41.795Z,10.67
2022-09-14T02:05:46.174Z,5.33
2022-09-14T02:08:34.329Z,9.97
2022-09-14T02:11:21.521Z,6.87
2022-09-14T02:14:08.774Z,8.43
2022-09-14T02:16:55.957Z,8.27
2022-09-14T02:19:50.109Z,7.23
2022-09-14T02:22:37.097Z,6.80
2022-09-14T02:25:24.150Z,6.97
2022-09-14T02:28:11.152Z,5.87
2022-09-14T02:31:19.638Z,7.60
2022-09-14T02:34:29.323Z,9.13
2022-09-14T02:41:17.194Z,8.70
2022-09-14T02:55:19.933Z,6.03
2022-09-14T02:58:12.613Z,8.10
2022-09-14T03:00:59.688Z,9.47
2022-09-14T03:03:47.198Z,6.80
2022-09-14T03:06:34.231Z,5.83
2022-09-14T03:09:21.229Z,6.60
2022-09-14T03:12:08.232Z,5.47
2022-09-14T03:14:55.219Z,8.60
2022-09-14T03:17:47.290Z,8.03
2022-09-14T03:20:35.323Z,5.17
2022-09-14T03:26:37.996Z,6.33
2022-09-14T03:29:25.011Z,6.17
2022-09-14T03:32:12.809Z,8.37
2022-09-14T03:35:00.072Z,9.33
2022-09-14T03:37:47.974Z,9.97
2022-09-14T03:40:35.763Z,8.17
2022-09-14T03:43:23.038Z,6.03
2022-09-14T03:46:30.437Z,10.27
2022-09-14T03:49:17.472Z,7.17
2022-09-14T03:52:04.943Z,8.20
2022-09-14T03:54:52.156Z,6.13
2022-09-14T03:57:39.177Z,7.70
2022-09-14T04:00:30.347Z,6.33
2022-09-14T04:03:17.941Z,8.43
2022-09-14T04:06:06.365Z,8.30
2022-09-14T04:08:53.742Z,10.43
2022-09-14T04:11:40.751Z,9.63
2022-09-14T04:14:29.926Z,9.60
2022-09-14T04:17:17.807Z,6.00
2022-09-14T04:23:06.025Z,8.10
2022-09-14T04:26:18.519Z,7.33
2022-09-14T04:29:06.357Z,6.33
2022-09-14T04:31:56.039Z,8.73
2022-09-14T04:34:43.303Z,5.93
2022-09-14T04:37:34.071Z,7.27
2022-09-14T04:40:23.571Z,11.57
2022-09-14T04:43:10.662Z,8.33
2022-09-14T04:46:08.811Z,7.43
2022-09-14T04:48:56.004Z,8.23
2022-09-14T04:51:43.023Z,6.63
2022-09-14T04:54:30.027Z,8.30
2022-09-14T04:57:17.019Z,6.57
2022-09-14T05:00:04.546Z,11.33
2022-09-14T05:02:51.649Z,7.10
2022-09-14T05:05:40.070Z,10.17
2022-09-14T05:08:30.158Z,8.00
2022-09-14T05:11:20.221Z,8.97
2022-09-14T05:14:07.250Z,8.03
2022-09-14T05:16:54.895Z,10.20
2022-09-14T05:19:41.839Z,10.90
2022-09-14T05:22:29.291Z,9.13
2022-09-14T05:25:16.518Z,10.27
2022-09-14T05:28:03.692Z,8.03
2022-09-14T05:30:50.780Z,6.70
2022-09-14T05:33:37.957Z,8.47
2022-09-14T05:36:25.569Z,10.17
2022-09-14T05:39:12.880Z,7.97
2022-09-14T05:42:00.076Z,10.33
2022-09-14T05:44:47.628Z,9.27
2022-09-14T05:47:38.871Z,9.80
2022-09-14T05:50:26.370Z,8.23
2022-09-14T05:57:15.453Z,14.47
2022-09-14T06:00:04.433Z,10.03
2022-09-14T06:02:53.434Z,13.20
2022-09-14T06:05:40.607Z,9.63
2022-09-14T06:08:27.785Z,9.77
2022-09-14T06:11:17.899Z,12.50
2022-09-14T06:14:05.670Z,10.30
2022-09-14T06:16:52.937Z,10.80
2022-09-14T06:19:40.486Z,9.57
2022-09-14T06:22:29.163Z,10.67
2022-09-14T06:25:17.485Z,8.83
2022-09-14T06:28:04.914Z,10.50
2022-09-14T06:30:52.574Z,10.00
2022-09-14T06:33:43.946Z,8.93
2022-09-14T06:36:31.376Z,7.60
2022-09-14T06:39:19.514Z,8.47
2022-09-14T06:42:13.137Z,12.47
2022-09-14T06:45:06.497Z,10.07
2022-09-14T06:47:53.886Z,9.07
2022-09-14T06:50:46.319Z,8.73
2022-09-14T06:53:37.166Z,10.63
2022-09-14T06:56:24.858Z,7.13
2022-09-14T06:59:15.700Z,9.10
2022-09-14T07:02:04.430Z,6.77
2022-09-14T07:04:54.919Z,11.43
2022-09-14T07:07:46.349Z,7.87
2022-09-14T07:10:38.030Z,4.77
2022-09-14T07:13:25.290Z,11.90
2022-09-14T07:16:13.014Z,8.97
2022-09-14T07:19:05.816Z,5.63
2022-09-14T07:21:54.769Z,7.87
2022-09-14T07:24:41.805Z,8.43
2022-09-14T07:27:29.854Z,9.57
2022-09-14T07:30:16.966Z,9.47
2022-09-14T07:33:05.275Z,8.93
2022-09-14T07:35:53.036Z,10.63
2022-09-14T07:38:55.591Z,8.27
2022-09-14T07:41:43.614Z,7.00
2022-09-14T07:44:30.669Z,6.70
2022-09-14T07:47:17.679Z,8.27
2022-09-14T07:50:05.087Z,10.30
2022-09-14T07:52:52.359Z,6.10
2022-09-14T07:55:40.935Z,5.90
2022-09-14T07:58:28.894Z,5.00
2022-09-14T08:01:20.491Z,5.97
2022-09-14T08:04:09.449Z,10.67
2022-09-14T08:06:56.846Z,6.30
2022-09-14T08:09:43.815Z,8.30
2022-09-14T08:12:31.168Z,5.97
2022-09-14T08:15:19.088Z,5.07
2022-09-14T08:18:06.033Z,4.77
2022-09-14T08:20:53.496Z,5.90
2022-09-14T08:23:41.930Z,7.53
2022-09-14T08:26:29.369Z,8.03
2022-09-14T08:29:17.951Z,6.63
2022-09-14T08:32:05.544Z,10.17
2022-09-14T08:34:52.664Z,6.73
2022-09-14T08:37:39.614Z,5.33
2022-09-14T08:40:26.655Z,7.20
2022-09-14T08:43:15.075Z,4.80
2022-09-14T08:46:06.494Z,6.20
2022-09-14T08:48:54.417Z,3.97
2022-09-14T08:51:41.611Z,4.13
2022-09-14T08:54:28.752Z,8.37
2022-09-14T08:57:19.561Z,7.27
2022-09-14T09:00:21.056Z,5.30
2022-09-14T09:03:29.898Z,7.43
2022-09-14T09:06:24.532Z,6.80
2022-09-14T09:09:37.854Z,6.63
2022-09-14T09:12:42.256Z,5.07
2022-09-14T09:15:33.029Z,6.03
2022-09-14T09:18:23.608Z,5.07
2022-09-14T09:21:25.401Z,4.67
2022-09-14T09:24:36.907Z,5.33
2022-09-14T09:27:29.209Z,7.13
2022-09-14T09:30:17.328Z,10.37
2022-09-14T09:33:04.666Z,5.33
2022-09-14T09:35:53.454Z,8.07
2022-09-14T09:38:40.525Z,7.50
2022-09-14T09:41:31.057Z,8.63
2022-09-14T09:44:17.993Z,8.27
2022-09-14T09:47:05.717Z,6.83
2022-09-14T09:49:59.836Z,6.87
2022-09-14T09:52:53.178Z,8.30
2022-09-14T09:55:40.397Z,5.00
2022-09-14T09:58:30.766Z,6.67
2022-09-14T10:01:30.088Z,7.00
2022-09-14T10:04:19.714Z,6.47
2022-09-14T10:07:07.028Z,5.63
2022-09-14T10:10:21.594Z,8.00
2022-09-14T10:13:28.943Z,7.93
2022-09-14T10:16:18.059Z,4.77
2022-09-14T10:19:14.038Z,7.87
2022-09-14T10:22:04.700Z,7.63
2022-09-14T10:25:03.123Z,7.30
2022-09-14T10:27:56.133Z,6.60
2022-09-14T10:30:51.111Z,6.70
2022-09-14T10:33:38.918Z,3.70
2022-09-14T10:36:32.713Z,8.50
2022-09-14T10:39:27.137Z,5.63
2022-09-14T10:42:29.248Z,9.60
2022-09-14T10:45:50.116Z,8.47
2022-09-14T10:48:49.213Z,9.93
2022-09-14T10:51:57.607Z,4.50
2022-09-14T10:55:07.724Z,5.83
2022-09-14T10:58:17.322Z,6.77
2022-09-14T11:01:27.234Z,4.87
2022-09-14T11:04:23.298Z,6.30
2022-09-14T11:07:14.543Z,6.80
2022-09-14T11:10:17.094Z,5.30
2022-09-14T11:13:16.151Z,5.07
2022-09-14T11:16:54.206Z,5.17
2022-09-14T11:19:53.031Z,7.97
2022-09-14T11:22:58.265Z,3.00
2022-09-14T11:25:56.833Z,5.13
2022-09-14T11:28:58.335Z,4.07
2022-09-14T11:32:22.461Z,3.93
2022-09-14T11:35:22.094Z,4.70
2022-09-14T11:38:14.916Z,4.40
2022-09-14T11:41:07.958Z,4.20
2022-09-14T11:44:20.582Z,3.30
2022-09-14T11:47:19.216Z,3.47
2022-09-14T11:50:18.654Z,4.20
2022-09-14T11:53:16.327Z,5.27
2022-09-14T11:56:03.890Z,4.90
2022-09-14T11:58:51.257Z,3.87
2022-09-14T12:01:40.305Z,7.47
2022-09-14T12:04:27.340Z,3.60
2022-09-14T12:07:41.960Z,4.57
2022-09-14T12:10:29.750Z,4.47
2022-09-14T12:13:20.775Z,6.50
2022-09-14T12:16:09.412Z,5.37
2022-09-14T12:18:56.910Z,5.00
2022-09-14T12:21:43.922Z,6.10
2022-09-14T12:24:31.054Z,6.30
2022-09-14T12:27:22.806Z,4.73
2022-09-14T12:30:42.160Z,4.47
2022-09-14T12:34:09.170Z,4.23
2022-09-14T12:37:00.319Z,3.80
2022-09-14T12:40:33.997Z,4.10
2022-09-14T12:43:33.168Z,2.30
2022-09-14T12:46:20.111Z,4.87
2022-09-14T12:49:25.526Z,5.30
2022-09-14T12:52:30.755Z,7.53
2022-09-14T12:55:39.065Z,8.53
2022-09-14T12:58:31.200Z,4.73
2022-09-14T13:01:28.954Z,5.77
2022-09-14T13:04:25.725Z,5.70
2022-09-14T13:07:16.289Z,3.20
2022-09-14T13:10:06.824Z,4.83
2022-09-14T13:12:56.003Z,5.43
2022-09-14T13:15:53.384Z,6.40
2022-09-14T13:18:40.440Z,5.77
2022-09-14T13:21:27.691Z,2.77
2022-09-14T13:24:43.937Z,6.63
2022-09-14T13:27:30.849Z,7.20
2022-09-14T13:30:21.666Z,5.77
2022-09-14T13:33:18.375Z,3.00
2022-09-14T13:36:05.539Z,6.67
2022-09-14T13:38:53.285Z,3.80
2022-09-14T13:41:44.628Z,4.80
2022-09-14T13:44:46.769Z,3.57
2022-09-14T13:47:34.309Z,4.37
2022-09-14T13:50:25.334Z,3.90
2022-09-14T13:53:38.695Z,3.87
2022-09-14T13:56:34.693Z,4.57
2022-09-14T13:59:22.740Z,4.83
2022-09-14T14:02:13.867Z,5.60
2022-09-14T14:05:01.454Z,4.90
2022-09-14T14:10:51.343Z,4.50
2022-09-14T14:13:38.793Z,6.07
2022-09-14T14:16:29.077Z,5.43
2022-09-14T14:19:30.989Z,5.33
2022-09-14T14:22:17.901Z,5.67
2022-09-14T14:25:28.797Z,6.37
2022-09-14T14:28:27.460Z,5.37
2022-09-14T14:31:18.550Z,4.77
2022-09-14T14:34:18.976Z,8.13
2022-09-14T14:37:05.946Z,3.20
2022-09-14T14:39:52.966Z,3.67
2022-09-14T14:42:41.211Z,4.80
2022-09-14T14:45:28.777Z,5.60
2022-09-14T14:48:16.011Z,3.80
2022-09-14T14:51:03.234Z,4.87
2022-09-14T14:53:50.176Z,5.80
2022-09-14T14:56:38.856Z,6.00
2022-09-14T14:59:28.538Z,3.63
2022-09-14T15:02:15.674Z,5.90
2022-09-14T15:05:02.708Z,5.60
2022-09-14T15:07:52.719Z,7.00
2022-09-14T15:10:40.718Z,8.93
2022-09-14T15:13:27.729Z,4.53
2022-09-14T15:16:15.142Z,4.77
2022-09-14T15:19:02.297Z,8.47
2022-09-14T15:21:49.806Z,6.80
2022-09-14T15:24:37.309Z,5.70
2022-09-14T15:27:24.365Z,6.37
2022-09-14T15:30:12.709Z,4.33
2022-09-14T15:32:59.745Z,5.10
2022-09-14T15:35:54.045Z,6.70
2022-09-14T15:38:41.085Z,5.30
2022-09-14T15:41:28.146Z,5.70
2022-09-14T15:44:15.759Z,4.33
2022-09-14T15:47:02.796Z,3.97
2022-09-14T15:49:52.970Z,4.00
2022-09-14T15:52:40.281Z,7.37
2022-09-14T15:55:27.434Z,3.47
2022-09-14T15:58:14.417Z,4.47
2022-09-14T16:01:06.565Z,3.00
2022-09-14T16:04:11.996Z,3.80
2022-09-14T16:06:59.069Z,5.57
2022-09-14T16:09:46.042Z,4.63
2022-09-14T16:12:33.320Z,8.17
2022-09-14T16:15:20.702Z,6.97
2022-09-14T16:18:08.735Z,8.23
2022-09-14T16:20:56.335Z,4.57
2022-09-14T16:23:46.299Z,5.60
2022-09-14T16:26:37.014Z,6.27
2022-09-14T16:29:24.669Z,5.97
2022-09-14T16:32:11.572Z,6.23
2022-09-14T16:34:58.608Z,6.00
2022-09-14T16:37:45.637Z,6.37
2022-09-14T16:40:34.264Z,6.67
2022-09-14T16:43:21.230Z,8.73
2022-09-14T16:46:14.466Z,6.47
2022-09-14T16:49:01.648Z,4.73
2022-09-14T16:51:48.612Z,6.37
2022-09-14T16:54:35.656Z,5.27
2022-09-14T16:57:22.725Z,4.80
2022-09-14T17:00:10.501Z,5.07
2022-09-14T17:02:57.745Z,6.43
2022-09-14T17:05:44.791Z,4.73
2022-09-14T17:08:33.285Z,3.30
2022-09-14T17:11:20.646Z,5.53
2022-09-14T17:14:09.402Z,8.17
2022-09-14T17:16:57.459Z,2.83
2022-09-14T17:19:44.549Z,5.47
2022-09-14T17:22:32.752Z,3.57
2022-09-14T17:25:20.441Z,5.63
2022-09-14T17:28:07.689Z,4.17
2022-09-14T17:30:57.320Z,4.97
2022-09-14T17:33:44.780Z,4.67
2022-09-14T17:36:32.857Z,4.37
2022-09-14T17:39:20.143Z,4.97
2022-09-14T17:42:07.298Z,8.63
2022-09-14T17:44:54.276Z,4.53
2022-09-14T17:47:41.240Z,6.23
2022-09-14T17:50:28.229Z,4.87
2022-09-14T17:53:15.702Z,3.87
2022-09-14T17:56:05.497Z,7.50
2022-09-14T17:59:20.747Z,5.97
2022-09-14T18:02:09.434Z,8.33
2022-09-14T18:04:56.446Z,7.53
2022-09-14T18:07:43.450Z,6.20
2022-09-14T18:10:30.459Z,4.60
2022-09-14T18:13:17.589Z,4.33
2022-09-14T18:16:04.795Z,4.17
2022-09-14T18:18:52.069Z,6.93
2022-09-14T18:21:39.511Z,4.03
2022-09-14T18:24:27.121Z,5.07
2022-09-14T18:27:14.112Z,5.60
2022-09-14T18:30:03.042Z,7.10
2022-09-14T18:32:50.022Z,7.97
2022-09-14T18:35:38.517Z,5.93
2022-09-14T18:38:26.057Z,6.63
2022-09-14T18:41:13.421Z,7.70
2022-09-14T18:44:01.652Z,5.63
2022-09-14T18:46:51.118Z,5.83
2022-09-14T18:49:38.108Z,6.27
2022-09-14T18:52:25.052Z,6.57
2022-09-14T18:55:11.985Z,5.50
2022-09-14T18:57:59.283Z,5.60
2022-09-14T19:00:46.695Z,6.67
2022-09-14T19:03:34.760Z,4.60
2022-09-14T19:06:23.136Z,8.27
2022-09-14T19:09:10.084Z,5.70
2022-09-14T19:11:57.318Z,6.87
2022-09-14T19:14:44.256Z,6.70
2022-09-14T19:17:31.293Z,5.93
2022-09-14T19:20:19.502Z,5.43
2022-09-14T19:23:07.617Z,7.63
2022-09-14T19:25:54.613Z,6.50
2022-09-14T19:28:42.401Z,10.67
2022-09-14T19:31:30.952Z,6.00
2022-09-14T19:34:23.452Z,4.10
2022-09-14T19:37:10.362Z,4.90
2022-09-14T19:39:58.057Z,7.93
2022-09-14T19:42:45.206Z,6.53
2022-09-14T19:45:35.750Z,9.40
2022-09-14T19:48:24.407Z,7.90
2022-09-14T19:51:15.415Z,7.57
2022-09-14T19:54:02.320Z,9.23
2022-09-14T19:56:49.304Z,10.83
2022-09-14T19:59:36.245Z,7.80
2022-09-14T20:02:23.376Z,7.20
2022-09-14T20:05:10.823Z,7.33
2022-09-14T20:07:57.851Z,6.70
2022-09-14T20:10:44.821Z,8.13
2022-09-14T20:13:32.608Z,9.33
2022-09-14T20:16:28.877Z,6.27
2022-09-14T20:19:18.875Z,7.07
2022-09-14T20:22:05.899Z,6.30
2022-09-14T20:24:52.981Z,11.97
2022-09-14T20:27:40.188Z,11.70
2022-09-14T20:30:27.479Z,8.80
2022-09-14T20:33:14.590Z,9.20
2022-09-14T20:36:10.770Z,11.17
2022-09-14T20:38:59.607Z,6.67
2022-09-14T20:41:46.766Z,7.37
2022-09-14T20:44:36.614Z,12.10
2022-09-14T20:47:24.841Z,9.10
2022-09-14T20:50:11.786Z,13.87
2022-09-14T20:52:58.721Z,7.00
2022-09-14T20:55:45.738Z,10.23
2022-09-14T20:58:33.467Z,10.47
2022-09-14T21:01:22.062Z,12.63
2022-09-14T21:04:12.565Z,11.03
2022-09-14T21:06:59.535Z,11.03
2022-09-14T21:09:46.495Z,9.13
2022-09-14T21:12:33.983Z,8.80
2022-09-14T21:15:21.386Z,10.53
2022-09-14T21:18:08.647Z,9.63
2022-09-14T21:20:59.905Z,9.10
2022-09-14T21:23:50.425Z,9.23
2022-09-14T21:26:42.368Z,9.53
2022-09-14T21:29:29.888Z,8.07
2022-09-14T21:32:17.066Z,14.97
2022-09-14T21:35:05.524Z,10.23
2022-09-14T21:37:52.690Z,10.23
2022-09-14T21:40:45.404Z,9.57
2022-09-14T21:43:32.479Z,8.50
2022-09-14T21:46:20.190Z,9.07
2022-09-14T21:49:07.659Z,13.10
2022-09-14T21:51:54.774Z,8.20
2022-09-14T21:54:41.880Z,12.07
2022-09-14T21:57:28.901Z,8.90
2022-09-14T22:00:16.380Z,12.13
2022-09-14T22:03:03.565Z,13.00
2022-09-14T22:06:02.959Z,8.23
2022-09-14T22:08:51.964Z,12.70
2022-09-14T22:11:39.745Z,12.60
2022-09-14T22:14:28.843Z,10.03
2022-09-14T22:17:16.568Z,11.43
2022-09-14T22:20:04.781Z,11.87
2022-09-14T22:22:52.233Z,12.10
2022-09-14T22:25:40.270Z,14.93
2022-09-14T22:28:27.367Z,11.50
2022-09-14T22:31:14.732Z,14.07
2022-09-14T22:34:01.811Z,12.40
2022-09-14T22:36:49.019Z,12.60
2022-09-14T22:39:36.117Z,13.07
2022-09-14T22:42:24.232Z,12.03
2022-09-14T22:45:11.374Z,16.27
2022-09-14T22:47:58.552Z,17.30
2022-09-14T22:50:47.045Z,14.63
2022-09-14T22:53:34.478Z,14.47
2022-09-14T22:56:28.396Z,19.50
2022-09-14T22:59:15.523Z,14.47
2022-09-14T23:02:02.667Z,15.97
2022-09-14T23:04:50.432Z,16.60
2022-09-14T23:07:37.486Z,13.57
2022-09-14T23:10:24.937Z,12.30
2022-09-14T23:13:12.214Z,16.03
2022-09-14T23:16:01.253Z,14.67
2022-09-14T23:18:56.114Z,14.57
2022-09-14T23:21:45.090Z,12.33
2022-09-14T23:24:32.264Z,13.00
2022-09-14T23:27:19.340Z,14.53
2022-09-14T23:30:07.036Z,15.30
2022-09-14T23:32:54.192Z,13.27
2022-09-14T23:35:47.318Z,15.30
2022-09-14T23:38:35.425Z,16.10
2022-09-14T23:41:23.960Z,15.60
2022-09-14T23:44:12.833Z,16.47
2022-09-14T23:47:00.003Z,15.23
2022-09-14T23:49:47.272Z,15.37
2022-09-14T23:52:34.429Z,13.23
2022-09-14T23:55:21.427Z,15.70
2022-09-14T23:58:08.700Z,16.83
